Aérodrome :
LOGIN :

S'inscrire | Disclaimer

   EN    FR    IT 

 










Légende :    VFR   VFR Marginal   IFR   IFR Intensif   IFR Très Intensif
Visi : 
Plafond : 
>= 8 km
>= 3000ft
5 à 8 km
1000 à 3000 ft
1500m à 5 km
500 à 1000 ft
800 à 1500m
200 à 500 ft
< 800m
< 200 ft
Symboles :   Orages  Brouillard  Fortes neiges  Fortes précipitations  Vent > 20 kt
SIGMETs :   Divers  Orages  Givrage  Turbulence  Onde Orograph.  Cendres Volcan.






- Altitude de l'aérodrome : 228 ft
- Code IATA : OPO


LPPR - Porto Fr. Sa Carneiro

DERNIER METAR :
  • 251000Z 10004KT 060V130 CAVOK 11/07 Q1017

METARs EXPIRÉS :
  • 250930Z 09003KT 040V170 CAVOK 10/06 Q1017
  • 250900Z 06003KT 340V130 CAVOK 08/06 Q1017
  • 250830Z 09003KT 050V120 CAVOK 08/05 Q1016
  • 250800Z 09005KT 350V120 CAVOK 08/05 Q1016
  • 250730Z 06004KT 020V100 CAVOK 08/05 Q1016

TAF TAF LPPR
Valide du 25 à 06h jusqu'au 26 à 06h UTC


250500Z 2506/2606 08005KT CAVOK
BECMG 2510/2512 15007KT
BECMG 2513/2515 30008KT
BECMG 2519/2521 VRB02KT
BECMG 2522/2524 15007KT 5000 BR FEW005
PROB30
TEMPO 2600/2606 1200 PRFG BKN001



MET'MAP, la Météo Aéronautique d'un coup d'oeil ! - Copyright ORBIFLY Décembre 2007 - Disclaimer

ORBIFLY MET'MAP TEAM :

Programmation & Développement : Alexandra Zaïnal
Sur une idée originale de : Baudouin d'Aumeries
Assistance à la programmation : Marc-Olivier Méhu
Soutien technique & logistique : Manuel Goepfert

Contact : metmap@orbifly.com




SOURCES & CREDITS :

   NOAA